Sunday, February 01, 2015
13:15 UTC
  |  Log In   |  Register Free
Airport Search:

Hobart Regional Airport
(KHBR)

Hobart Regional Airport Diagram
No Airport Diagram Available

FAA data valid effective January 08, 2015 - March 05, 2015 (unless otherwise noted).

 
 
 
 
 
 
 
 
 
 
 
 
 
 

Current Aviation Weather for Hobart Regional Airport (KHBR)

The most recent METAR observation for KHBR was updated at: 1312
METAR Summary (Translated METAR)
KHBR
011253Z AUTO 35016G24KT 10SM FEW023 OVC110 05/03 A2994 RMK AO2 PK WND 35027/1205 SLP141 T00500028
KCSM
011253Z AUTO 34023G33KT 10SM BKN022 OVC120 04/00 A2995 RMK AO2 PK WND 34035/1233 SLP144 T00390000
(22.2 nm NW from KHBR)
KAXS
011255Z AUTO 35013KT 10SM CLR 06/05 A2995 RMK AO2 T00550050
(22.5 nm SW from KHBR)
TAF Summary (Translated TAF)
KHBR
011139Z 0112/0212 32015G22KT P6SM BKN025 FM011500 35025G37KT P6SM SCT030 FM020000 01015G24KT P6SM SKC FM020800 02010KT P6SM SKC
KCSM
(22.2 nm NW from KHBR)
011139Z 0112/0212 33021G29KT P6SM SCT015 BKN040 TEMPO 0112/0116 BKN015 FM011600 35026G38KT P6SM SCT030 FM020000 35016G26KT P6SM SKC FM020800 36011KT P6SM SKC
  Airport Weather Conditions for KHBR

 Current Weather at HBR
43° F
Overcast and Breezy
North winds at 25.3 mph
HBR NOAA Radar

Pressure: 29.90 in
Humidity: 82%
Wind: from the North at 25.3 gusting to 34.5 MPH (22 gusting to 30 KT)
Dew Point: 37.9°F
Visibility: 10.00 mi


Airport Weather Forecast for KHBR

Translated METAR and TAF for KHBR
Translated METAR for KHBR (1315 UTC 01 February 2015)
found at http://aviationweather.gov/adds/metars/
 
METAR text: KHBR 011253Z AUTO 35016G24KT 10SM FEW023 OVC110 05/03 A2994 RMK AO2 PK WND 35027/1205 SLP141 T00500028
Conditions at: KHBR (HOBART , OK, US) observed 1253 UTC 01 February 2015
Temperature: 5.0°C (41°F)
Dewpoint: 2.8°C (37°F) [RH = 86%]
Pressure (altimeter): 29.94 inches Hg (1014.0 mb)
[Sea-level pressure: 1014.1 mb]
Winds: from the N (350 degrees) at 18 MPH (16 knots; 8.3 m/s)
gusting to 28 MPH (24 knots; 12.5 m/s)
Visibility: 10 or more miles (16+ km)
Ceiling: 11000 feet AGL
Clouds: few clouds at 2300 feet AGL
overcast cloud deck at 11000 feet AGL
Weather: automated observation with no human augmentation;
there may or may not be significant weather present at this time
Translated TAF for KHBR
Forecast for: KHBR (HOBART , OK, US)
TAF Text: KHBR 011139Z 0112/0212 32015G22KT P6SM BKN025
Forecast period: 1200 to 1500 UTC 01 February 2015
Forecast type: FROM: standard forecast or significant change
Winds: from the NW (320 degrees) at 17 MPH (15 knots; 7.8 m/s)
gusting to 25 MPH (22 knots; 11.4 m/s)
Visibility: 6 or more miles (10+ km)
Ceiling: 2500 feet AGL
Clouds: broken clouds at 2500 feet AGL
Weather: no significant weather forecast for this period
TAF Text: FM011500 35025G37KT P6SM SCT030
Forecast period: 1500 UTC 01 February 2015 to 0000 UTC 02 February 2015
Forecast type: FROM: standard forecast or significant change
Winds: from the N (350 degrees) at 29 MPH (25 knots; 13.0 m/s)
gusting to 43 MPH (37 knots; 19.2 m/s)
Visibility: 6 or more miles (10+ km)
Clouds: scattered clouds at 3000 feet AGL
Weather: no significant weather forecast for this period
TAF Text: FM020000 01015G24KT P6SM SKC
Forecast period: 0000 to 0800 UTC 02 February 2015
Forecast type: FROM: standard forecast or significant change
Winds: from the N (10 degrees) at 17 MPH (15 knots; 7.8 m/s)
gusting to 28 MPH (24 knots; 12.5 m/s)
Visibility: 6 or more miles (10+ km)
Clouds: clear skies
Weather: no significant weather forecast for this period
TAF Text: FM020800 02010KT P6SM SKC
Forecast period: 0800 to 1200 UTC 02 February 2015
Forecast type: FROM: standard forecast or significant change
Winds: from the NNE (20 degrees) at 12 MPH (10 knots; 5.2 m/s)
Visibility: 6 or more miles (10+ km)
Clouds: clear skies
Weather: no significant weather forecast for this period

Find All Airport Services Find A Hotel Find A Rental Car Find A Golf Course Find A Restaurant $100 Hamburger



FBO's on the Field
FBO Company Facility Photos Services Transportation Aviation Fuel Prices: Prices include tax
Catering Weather Repair Courtesy Rental Type 100LL JetA JetA+ MOGAS 8087
 
City of Hobart

Currently rated 2.8 by 1 person
FS:Phillips 66
Last Updated: Jan-02
Login to update fuel prices
SS:
Contact City of HobartMore FBO Information
 
Add another FBO Facility Photos Catering Weather Repair Courtesy Rental Type 100LL JetA JetA+ MOGAS 8087
Services Transportation Aviation Fuel Prices: Prices include tax


model-print
model-print
model-print
model-print